Time;durP1;ratioP1;P1;durP2;ratioP2;P2;SDS_P1;SDS_P2;PMS_P1;PMS_P2;Temp;Humidity;BMP_temperature;BMP_pressure;BME280_temperature;BME280_humidity;BME280_pressure;Samples;Min_cycle;Max_cycle;Signal;HPM_P1;HPM_P2
2021/12/03 00:00:52;;;;;;;10.45;6.47;;;;;;;3.47;64.95;97688.53;5107556;28;20246;-67
2021/12/03 00:03:24;;;;;;;7.75;6.15;;;;;;;4.53;64.90;97869.88;5107473;28;20093;-67
2021/12/03 00:05:57;;;;;;;6.50;5.70;;;;;;;4.53;64.60;97881.22;5107511;28;20087;-67
2021/12/03 00:08:30;;;;;;;8.10;5.97;;;;;;;1.92;64.39;97454.22;5107395;28;20040;-67
2021/12/03 00:11:03;;;;;;;8.40;5.55;;;;;;;4.43;64.22;97885.25;5089973;28;20048;-67
2021/12/03 00:13:37;;;;;;;6.05;4.93;;;;;;;2.63;63.87;97593.47;5107596;28;20177;-67
2021/12/03 00:16:10;;;;;;;6.87;5.13;;;;;;;4.18;63.96;97854.22;5107483;28;20085;-66
2021/12/03 00:18:43;;;;;;;7.22;5.18;;;;;;;4.42;63.81;97899.31;5107196;28;20040;-67
2021/12/03 00:21:17;;;;;;;9.00;5.50;;;;;;;3.69;63.46;97790.44;5107182;28;20285;-66
2021/12/03 00:23:49;;;;;;;7.72;5.07;;;;;;;4.40;63.18;97894.13;5107314;28;20052;-66
2021/12/03 00:26:21;;;;;;;6.20;4.90;;;;;;;4.37;62.94;97906.56;5107264;28;20101;-67
2021/12/03 00:28:55;;;;;;;6.22;5.03;;;;;;;4.34;62.79;97901.50;5106982;28;20048;-67
2021/12/03 00:31:27;;;;;;;8.82;5.53;;;;;;;4.35;62.86;97908.44;5107225;28;20044;-66
2021/12/03 00:33:59;;;;;;;7.85;5.13;;;;;;;4.32;62.62;97917.31;5106888;28;20050;-66
2021/12/03 00:36:31;;;;;;;10.07;4.63;;;;;;;4.29;62.03;97927.97;5106799;28;20040;-66
2021/12/03 00:39:04;;;;;;;6.45;3.80;;;;;;;4.29;62.03;97932.34;5106821;28;20062;-66
2021/12/03 00:41:45;;;;;;;6.55;4.53;;;;;;;4.28;61.57;97931.50;5106773;28;20242;-67
2021/12/03 00:44:23;;;;;;;5.45;4.00;;;;;;;4.26;61.93;97946.47;5107714;28;20052;-67
2021/12/03 00:46:55;;;;;;;8.70;4.30;;;;;;;4.24;61.95;97952.72;5106650;28;20372;-67
2021/12/03 00:49:27;;;;;;;4.82;3.60;;;;;;;4.21;62.09;97958.97;5088927;28;20040;-67
2021/12/03 00:51:59;;;;;;;6.93;4.90;;;;;;;4.21;62.14;97973.88;5106596;28;20040;-67
2021/12/03 00:54:32;;;;;;;9.27;4.95;;;;;;;3.35;61.82;97854.16;5106735;28;20085;-66
2021/12/03 00:57:05;;;;;;;6.18;3.92;;;;;;;4.19;62.18;97992.28;5089047;28;20051;-66
2021/12/03 00:59:38;;;;;;;8.85;4.95;;;;;;;4.19;62.26;98005.38;5106409;28;20301;-66
2021/12/03 01:02:10;;;;;;;6.20;3.72;;;;;;;4.20;62.22;98009.72;5106564;28;20036;-66
2021/12/03 01:04:42;;;;;;;6.45;4.22;;;;;;;4.15;61.53;98014.31;5106617;28;20296;-66
2021/12/03 01:07:15;;;;;;;6.20;4.20;;;;;;;4.15;62.06;98044.03;5105722;28;20040;-66
2021/12/03 01:09:47;;;;;;;7.05;4.30;;;;;;;4.09;61.33;98017.25;5106443;28;20097;-66
2021/12/03 01:12:19;;;;;;;6.45;4.70;;;;;;;4.08;61.87;98016.41;5106163;28;20047;-66
2021/12/03 01:14:53;;;;;;;5.65;4.15;;;;;;;4.08;61.80;98052.28;5106371;28;20044;-66
2021/12/03 01:17:25;;;;;;;7.15;3.85;;;;;;;4.04;61.90;98021.88;5106107;28;20044;-67
2021/12/03 01:19:59;;;;;;;6.07;4.22;;;;;;;2.59;62.03;97792.47;5106078;28;20040;-66
2021/12/03 01:22:28;;;;;;;6.75;4.72;;;;;;;4.02;62.05;98042.09;5106113;28;20048;-66
2021/12/03 01:24:58;;;;;;;8.13;4.93;;;;;;;4.03;62.15;98039.38;5106781;28;20040;-66
2021/12/03 01:27:29;;;;;;;6.43;3.88;;;;;;;4.07;62.27;98047.94;5105918;28;20051;-66
2021/12/03 01:29:59;;;;;;;6.90;4.32;;;;;;;4.03;61.99;98049.88;5106121;28;20047;-66
2021/12/03 01:32:29;;;;;;;8.27;4.38;;;;;;;4.07;62.31;98048.78;5106093;28;20047;-66
2021/12/03 01:34:58;;;;;;;6.65;4.50;;;;;;;4.01;62.24;98050.88;5106119;28;20028;-66
2021/12/03 01:37:28;;;;;;;5.47;4.10;;;;;;;3.99;62.07;98056.19;5105789;28;20036;-66
2021/12/03 01:39:59;;;;;;;7.15;4.32;;;;;;;3.54;61.58;97991.16;5106085;28;20035;-66
2021/12/03 01:42:29;;;;;;;6.63;4.57;;;;;;;3.93;61.51;98072.22;5105704;28;20036;-66
2021/12/03 01:45:00;;;;;;;6.53;3.97;;;;;;;3.94;61.73;98073.91;5105957;28;20093;-66
2021/12/03 01:47:29;;;;;;;6.75;4.03;;;;;;;3.95;61.91;98078.25;5105349;28;20113;-66
2021/12/03 01:49:59;;;;;;;5.88;4.68;;;;;;;3.94;62.04;98087.03;5105610;28;20039;-66
2021/12/03 01:52:29;;;;;;;7.93;4.82;;;;;;;3.95;62.17;98088.72;5105654;28;20040;-66
2021/12/03 01:55:01;;;;;;;6.97;4.63;;;;;;;3.98;62.19;98090.34;5105921;28;20031;-66
2021/12/03 01:57:29;;;;;;;7.05;4.95;;;;;;;3.97;62.24;98093.91;5105642;28;20119;-66
2021/12/03 02:00:01;;;;;;;8.98;4.82;;;;;;;3.91;62.41;98108.16;5105827;28;20040;-66
2021/12/03 02:02:29;;;;;;;10.40;6.90;;;;;;;3.93;62.39;98108.06;5105634;28;20056;-66
2021/12/03 02:05:00;;;;;;;9.40;6.10;;;;;;;3.95;62.35;98112.31;5105741;28;20032;-66
2021/12/03 02:07:30;;;;;;;9.88;6.88;;;;;;;3.95;62.26;98114.09;5105477;28;20111;-66
2021/12/03 02:10:00;;;;;;;7.32;4.85;;;;;;;3.93;62.03;98121.19;5105478;28;20036;-66
2021/12/03 02:12:30;;;;;;;7.88;4.97;;;;;;;3.91;62.44;98123.03;5105700;28;20104;-66
2021/12/03 02:15:02;;;;;;;6.90;4.45;;;;;;;3.91;62.57;98128.25;5105456;28;20043;-66
2021/12/03 02:17:30;;;;;;;6.45;4.47;;;;;;;3.91;62.60;98125.66;5105430;28;20047;-66
2021/12/03 02:20:01;;;;;;;7.15;4.82;;;;;;;3.39;62.42;98045.13;5108700;28;20058;-66
2021/12/03 02:22:32;;;;;;;5.85;4.75;;;;;;;3.87;62.67;98127.56;5109705;28;20103;-65
2021/12/03 02:25:01;;;;;;;5.68;4.00;;;;;;;3.85;62.73;98132.88;5109239;28;20095;-65
2021/12/03 02:27:31;;;;;;;6.38;4.43;;;;;;;3.86;62.75;98138.97;5109519;28;20047;-66
2021/12/03 02:30:01;;;;;;;5.85;4.57;;;;;;;3.52;62.46;98090.78;5109487;28;20036;-66
2021/12/03 02:32:31;;;;;;;9.25;4.45;;;;;;;3.57;62.29;98094.94;5109223;28;20036;-66
2021/12/03 02:35:01;;;;;;;5.63;4.38;;;;;;;3.81;62.47;98130.47;5109239;28;20043;-66
2021/12/03 02:37:32;;;;;;;6.55;4.47;;;;;;;3.80;61.80;98140.09;5091707;28;20035;-66
2021/12/03 02:40:02;;;;;;;7.97;4.30;;;;;;;3.81;61.79;98149.66;5109436;28;20043;-66
2021/12/03 02:42:32;;;;;;;6.72;3.75;;;;;;;3.57;60.96;98124.63;5109650;28;20066;-66
2021/12/03 02:45:01;;;;;;;5.80;3.90;;;;;;;3.72;60.27;98146.63;5108899;28;20043;-65
2021/12/03 02:47:32;;;;;;;6.35;3.38;;;;;;;2.79;60.11;98020.84;5108868;28;20056;-66
2021/12/03 02:50:02;;;;;;;5.72;3.83;;;;;;;3.48;60.49;98115.41;5108895;28;20292;-65
2021/12/03 02:52:33;;;;;;;6.15;4.07;;;;;;;3.70;59.46;98169.44;5109169;28;20040;-66
2021/12/03 02:55:03;;;;;;;6.05;3.70;;;;;;;3.67;58.82;98174.81;5108713;28;20292;-66
2021/12/03 02:57:32;;;;;;;5.78;3.70;;;;;;;3.67;58.98;98185.28;5108921;28;20345;-66
2021/12/03 03:00:06;;;;;;;7.80;4.53;;;;;;;3.62;58.89;98188.13;5108700;28;20093;-66
2021/12/03 03:02:38;;;;;;;4.55;3.45;;;;;;;3.64;59.22;98193.28;5108943;28;20047;-66
2021/12/03 03:05:09;;;;;;;9.80;3.67;;;;;;;3.66;58.81;98201.94;5108837;28;20074;-66
2021/12/03 03:07:40;;;;;;;7.75;3.80;;;;;;;2.93;58.89;98114.44;5090860;28;20047;-66
2021/12/03 03:10:12;;;;;;;8.15;3.85;;;;;;;2.76;58.71;98067.22;5108716;28;20054;-66
2021/12/03 03:12:44;;;;;;;6.07;3.50;;;;;;;3.69;58.88;98200.03;5108477;28;20112;-66
2021/12/03 03:15:17;;;;;;;4.90;3.10;;;;;;;2.90;58.46;98101.47;5108432;28;20052;-66
2021/12/03 03:17:50;;;;;;;4.50;3.63;;;;;;;3.63;58.79;98242.22;5108674;28;20040;-66
2021/12/03 03:20:22;;;;;;;8.13;3.65;;;;;;;3.59;58.30;98232.81;5108361;28;20040;-65
2021/12/03 03:22:56;;;;;;;4.80;3.20;;;;;;;1.81;58.62;97930.16;5090624;28;20040;-66
2021/12/03 03:25:28;;;;;;;5.13;3.65;;;;;;;3.57;58.41;98231.19;5108305;28;20097;-66
2021/12/03 03:28:00;;;;;;;4.22;3.47;;;;;;;3.58;58.81;98232.88;5090420;28;20089;-66
2021/12/03 03:30:33;;;;;;;6.55;3.22;;;;;;;3.51;58.42;98268.97;5107799;28;20040;-66
2021/12/03 03:33:06;;;;;;;7.40;3.85;;;;;;;3.49;58.83;98247.22;5090295;28;20044;-65
2021/12/03 03:35:38;;;;;;;3.90;3.20;;;;;;;3.50;58.38;98286.47;5107979;28;20288;-66
2021/12/03 03:38:12;;;;;;;3.60;3.10;;;;;;;3.55;58.62;98274.94;5107979;28;20145;-65
2021/12/03 03:40:46;;;;;;;7.50;3.47;;;;;;;3.52;58.75;98284.63;5107979;28;20086;-66
2021/12/03 03:43:20;;;;;;;6.97;4.40;;;;;;;3.53;58.76;98288.94;5108107;28;20039;-66
2021/12/03 03:45:52;;;;;;;7.28;3.47;;;;;;;3.02;59.09;98233.56;5107779;28;20326;-66
2021/12/03 03:48:25;;;;;;;6.70;4.05;;;;;;;3.56;58.92;98294.97;5107647;28;20247;-66
2021/12/03 03:50:58;;;;;;;8.05;3.85;;;;;;;3.50;59.25;98299.56;5107753;28;20296;-66
2021/12/03 03:53:31;;;;;;;5.50;3.70;;;;;;;2.72;59.24;98199.09;5108502;28;20169;-66
2021/12/03 03:56:04;;;;;;;4.18;3.17;;;;;;;3.50;59.78;98302.19;5107688;28;20040;-66
2021/12/03 03:58:37;;;;;;;5.28;3.47;;;;;;;3.47;59.64;98302.31;5107570;28;20349;-66
2021/12/03 04:01:10;;;;;;;6.22;3.72;;;;;;;3.46;60.03;98307.63;5107593;28;20086;-66
2021/12/03 04:03:46;;;;;;;5.10;3.28;;;;;;;3.48;59.73;98313.63;5107439;28;20044;-65
2021/12/03 04:06:20;;;;;;;4.45;3.55;;;;;;;3.47;59.55;98317.19;5107732;28;20093;-65
2021/12/03 04:08:54;;;;;;;4.43;2.67;;;;;;;3.45;59.29;98319.84;5089657;28;20044;-65
2021/12/03 04:11:26;;;;;;;4.85;3.33;;;;;;;3.40;59.67;98327.06;5107360;28;20254;-66
2021/12/03 04:13:58;;;;;;;6.63;3.10;;;;;;;3.40;59.46;98331.44;5107552;28;20044;-66
2021/12/03 04:16:31;;;;;;;5.85;3.33;;;;;;;3.17;59.27;98301.00;5107235;28;20036;-66
2021/12/03 04:19:03;;;;;;;8.13;4.18;;;;;;;3.35;59.53;98323.78;5107473;28;20044;-66
2021/12/03 04:21:35;;;;;;;5.85;3.40;;;;;;;3.33;59.42;98328.25;5107460;28;20048;-66
2021/12/03 04:24:09;;;;;;;5.40;3.03;;;;;;;3.34;59.56;98334.31;5107204;28;20089;-65
2021/12/03 04:26:41;;;;;;;4.35;2.78;;;;;;;3.29;59.18;98326.66;5107092;28;20040;-66
2021/12/03 04:29:13;;;;;;;4.72;3.25;;;;;;;3.30;59.39;98336.22;5107298;28;20051;-66
2021/12/03 04:31:45;;;;;;;6.72;3.50;;;;;;;3.23;59.01;98337.41;5107227;28;20062;-66
2021/12/03 04:34:17;;;;;;;3.97;3.08;;;;;;;3.24;59.33;98339.09;5106901;28;20090;-66
2021/12/03 04:36:50;;;;;;;7.03;3.30;;;;;;;2.97;59.35;98312.28;5106753;28;20085;-66
2021/12/03 04:39:23;;;;;;;4.30;2.92;;;;;;;3.16;59.21;98351.66;5107023;28;20036;-66
2021/12/03 04:41:55;;;;;;;4.00;3.17;;;;;;;3.16;59.28;98349.88;5105856;28;20105;-65
2021/12/03 04:44:28;;;;;;;5.50;3.22;;;;;;;3.16;59.24;98360.38;5106876;28;20044;-65
2021/12/03 04:47:00;;;;;;;4.40;2.67;;;;;;;3.14;59.33;98370.03;5106519;28;20052;-65
2021/12/03 04:49:32;;;;;;;3.88;3.20;;;;;;;3.16;59.49;98372.59;5106801;28;20346;-65
2021/12/03 04:52:06;;;;;;;4.53;3.03;;;;;;;3.17;59.19;98377.78;5106465;28;20228;-65
2021/12/03 04:54:40;;;;;;;4.45;3.13;;;;;;;3.16;59.28;98372.59;5106748;28;20048;-66
2021/12/03 04:57:13;;;;;;;4.90;2.78;;;;;;;3.10;59.26;98386.78;5106731;28;20093;-65
2021/12/03 04:59:45;;;;;;;3.95;3.17;;;;;;;3.04;59.41;98386.19;5106754;28;20105;-65
2021/12/03 05:02:19;;;;;;;5.47;3.10;;;;;;;3.08;59.81;98399.09;5088962;28;20044;-65
2021/12/03 05:04:53;;;;;;;4.88;2.70;;;;;;;3.10;59.66;98405.13;5106226;28;20044;-65
2021/12/03 05:07:30;;;;;;;7.83;3.57;;;;;;;3.07;59.71;98414.88;5106208;28;20040;-65
2021/12/03 05:10:06;;;;;;;5.07;3.35;;;;;;;2.86;59.56;98393.84;5106115;28;20081;-65
2021/12/03 05:12:38;;;;;;;4.70;2.90;;;;;;;3.14;59.67;98418.94;5106195;28;20177;-65
2021/12/03 05:15:09;;;;;;;7.68;3.40;;;;;;;3.15;59.32;98431.13;5106099;28;20051;-66
2021/12/03 05:17:38;;;;;;;7.25;3.50;;;;;;;3.07;59.90;98441.91;5106665;28;20040;-66
2021/12/03 05:20:09;;;;;;;5.65;4.00;;;;;;;1.62;59.71;98193.00;5088464;28;20114;-66
2021/12/03 05:22:38;;;;;;;4.20;2.97;;;;;;;3.05;59.76;98448.97;5106600;28;20034;-66
2021/12/03 05:25:10;;;;;;;9.05;3.65;;;;;;;2.78;59.79;98408.16;5105922;28;20089;-66
2021/12/03 05:27:40;;;;;;;4.68;3.25;;;;;;;2.98;59.89;98455.34;5106126;28;20048;-66
2021/12/03 05:30:10;;;;;;;5.40;3.40;;;;;;;2.92;60.37;98457.34;5105832;28;20062;-66
2021/12/03 05:32:39;;;;;;;6.03;2.92;;;;;;;2.91;60.49;98459.09;5106133;28;20064;-65
2021/12/03 05:35:11;;;;;;;5.53;3.30;;;;;;;2.94;60.57;98455.53;5106199;28;20048;-66
2021/12/03 05:37:39;;;;;;;5.68;3.63;;;;;;;2.88;60.41;98467.94;5088272;28;20044;-66
2021/12/03 05:40:12;;;;;;;6.55;3.92;;;;;;;2.85;60.50;98472.44;5105752;28;20040;-66
2021/12/03 05:42:45;;;;;;;6.38;3.50;;;;;;;1.31;60.54;98219.38;5105995;28;20039;-65
2021/12/03 05:45:17;;;;;;;5.88;3.30;;;;;;;2.78;60.77;98470.97;5105841;28;20040;-65
2021/12/03 05:47:45;;;;;;;5.50;3.40;;;;;;;2.78;60.85;98477.03;5105033;28;20060;-66
2021/12/03 05:50:16;;;;;;;5.78;3.40;;;;;;;2.79;61.04;98490.97;5105509;28;20055;-65
2021/12/03 05:52:46;;;;;;;6.40;3.45;;;;;;;2.86;60.82;98493.31;5088265;28;20093;-66
2021/12/03 05:55:17;;;;;;;5.47;3.72;;;;;;;2.86;60.68;98498.53;5105439;28;20067;-66
2021/12/03 05:57:46;;;;;;;5.80;3.92;;;;;;;2.88;60.92;98496.72;5105352;28;20051;-66
2021/12/03 06:00:18;;;;;;;5.32;4.10;;;;;;;2.91;60.98;98501.00;5105460;28;20040;-65
2021/12/03 06:02:52;;;;;;;6.10;4.50;;;;;;;2.93;61.03;98495.69;5105082;28;20040;-66
2021/12/03 06:05:26;;;;;;;5.30;3.77;;;;;;;2.86;61.07;98505.53;5105364;28;20232;-66
2021/12/03 06:07:59;;;;;;;5.40;3.80;;;;;;;2.84;61.20;98510.84;5105248;28;20043;-66
2021/12/03 06:10:33;;;;;;;7.72;3.92;;;;;;;2.80;61.20;98511.84;5105609;28;20043;-66
2021/12/03 06:13:06;;;;;;;6.83;4.07;;;;;;;2.83;61.25;98513.50;5105241;28;20047;-66
2021/12/03 06:15:38;;;;;;;6.75;4.28;;;;;;;2.81;61.31;98528.41;5105142;28;20044;-65
2021/12/03 06:18:10;;;;;;;6.88;4.18;;;;;;;2.76;61.66;98536.44;5105208;28;20040;-65
2021/12/03 06:20:43;;;;;;;6.93;4.47;;;;;;;2.83;61.56;98543.16;5105360;28;20272;-65
2021/12/03 06:23:15;;;;;;;5.03;3.60;;;;;;;2.83;61.47;98555.38;5105092;28;20314;-65
2021/12/03 06:25:49;;;;;;;7.75;4.85;;;;;;;2.80;61.47;98558.97;5105259;28;20055;-65
2021/12/03 06:28:21;;;;;;;6.47;3.90;;;;;;;2.77;61.57;98558.22;5105047;28;20349;-66
2021/12/03 06:30:54;;;;;;;8.88;4.90;;;;;;;2.80;61.67;98566.81;5105347;28;20288;-65
2021/12/03 06:33:26;;;;;;;7.57;4.30;;;;;;;2.86;61.58;98568.34;5104939;28;20047;-66
2021/12/03 06:35:59;;;;;;;6.35;5.03;;;;;;;2.60;61.65;98530.03;5087502;28;20043;-66
2021/12/03 06:38:32;;;;;;;6.05;4.20;;;;;;;2.85;61.70;98572.72;5105052;28;20040;-66
2021/12/03 06:41:07;;;;;;;6.13;4.53;;;;;;;2.85;61.59;98577.09;5105194;28;20047;-66
2021/12/03 06:43:39;;;;;;;7.97;4.03;;;;;;;2.85;61.52;98580.59;5105143;28;20040;-66
2021/12/03 06:46:11;;;;;;;6.70;4.35;;;;;;;1.90;61.38;98423.59;5104966;28;20063;-66
2021/12/03 06:48:43;;;;;;;7.90;4.75;;;;;;;2.88;61.69;98584.84;5064559;28;20208;-66
2021/12/03 06:51:16;;;;;;;5.95;4.35;;;;;;;2.88;61.54;98582.22;5064895;28;20052;-66
2021/12/03 06:53:56;;;;;;;8.07;5.75;;;;;;;2.94;61.91;98602.94;5064735;28;20052;-66
2021/12/03 06:56:43;;;;;;;6.82;4.60;;;;;;;3.00;61.57;98607.09;5064674;28;20052;-65
2021/12/03 06:59:16;;;;;;;8.65;4.30;;;;;;;2.97;61.46;98608.06;5064381;28;20224;-66
2021/12/03 07:01:49;;;;;;;5.55;4.20;;;;;;;2.90;61.34;98614.44;5064390;28;20048;-66
2021/12/03 07:04:22;;;;;;;7.28;4.88;;;;;;;2.87;61.42;98619.78;5064349;28;20048;-66
2021/12/03 07:06:55;;;;;;;6.30;4.90;;;;;;;2.86;61.55;98621.53;5068201;28;20041;-65
2021/12/03 07:09:27;;;;;;;5.82;4.32;;;;;;;2.85;61.12;98621.59;5068164;28;20312;-65
2021/12/03 07:12:01;;;;;;;5.78;3.72;;;;;;;2.64;61.23;98581.34;5067853;28;20045;-65
2021/12/03 07:14:33;;;;;;;6.25;4.20;;;;;;;2.87;61.02;98627.63;5067675;28;20036;-66
2021/12/03 07:17:06;;;;;;;5.97;3.75;;;;;;;2.87;60.85;98628.50;5068127;28;20052;-65
2021/12/03 07:19:39;;;;;;;6.82;4.22;;;;;;;2.93;60.82;98631.78;5067687;28;20041;-65
2021/12/03 07:22:11;;;;;;;7.78;4.28;;;;;;;2.41;60.91;98555.16;5067940;28;20052;-66
2021/12/03 07:24:43;;;;;;;8.02;3.83;;;;;;;2.95;60.88;98635.22;5067571;28;20041;-66
2021/12/03 07:27:18;;;;;;;7.53;4.88;;;;;;;2.95;61.07;98645.69;5067721;28;20045;-66
2021/12/03 07:29:50;;;;;;;7.68;5.32;;;;;;;1.65;60.91;98422.75;5067836;28;20048;-66
2021/12/03 07:32:24;;;;;;;7.07;4.70;;;;;;;2.98;61.04;98656.03;5067713;28;20045;-67
2021/12/03 07:34:57;;;;;;;6.25;4.50;;;;;;;3.00;60.93;98654.22;5066690;28;20037;-66
2021/12/03 07:37:29;;;;;;;6.68;4.55;;;;;;;3.00;61.01;98657.69;5067307;28;20182;-67
2021/12/03 07:40:03;;;;;;;7.13;4.90;;;;;;;3.01;61.04;98662.03;5067393;28;20052;-66
2021/12/03 07:42:37;;;;;;;6.15;5.10;;;;;;;0.64;60.96;98268.63;5067373;28;20040;-66
2021/12/03 07:45:13;;;;;;;6.73;4.97;;;;;;;3.00;61.00;98681.25;5067358;28;20048;-66
2021/12/03 07:47:45;;;;;;;10.07;5.47;;;;;;;3.01;61.27;98680.34;5091676;28;20484;-65
2021/12/03 07:50:16;;;;;;;8.60;4.95;;;;;;;2.10;61.19;98547.50;5107713;28;20108;-65
2021/12/03 07:52:44;;;;;;;6.57;4.82;;;;;;;3.06;61.11;98688.91;5107247;28;20242;-65
2021/12/03 07:55:15;;;;;;;5.75;4.10;;;;;;;3.02;61.35;98689.06;5107311;28;20254;-66
2021/12/03 07:57:46;;;;;;;9.35;5.22;;;;;;;3.05;61.22;98702.03;5107519;28;20323;-65
2021/12/03 08:00:15;;;;;;;7.32;4.38;;;;;;;3.07;61.10;98708.94;5107318;28;20353;-65
2021/12/03 08:02:45;;;;;;;7.35;5.07;;;;;;;3.05;61.04;98707.28;5106970;28;20238;-66
2021/12/03 08:05:15;;;;;;;5.70;4.45;;;;;;;3.09;61.13;98717.59;5107459;28;20040;-66
2021/12/03 08:07:47;;;;;;;7.05;5.15;;;;;;;1.38;61.37;98424.50;5107316;28;20040;-65
2021/12/03 08:10:16;;;;;;;6.50;5.20;;;;;;;3.00;61.52;98702.19;5107087;28;20070;-66
2021/12/03 08:12:48;;;;;;;6.82;4.57;;;;;;;3.34;61.25;98721.94;5106910;28;20040;-65
2021/12/03 08:15:16;;;;;;;7.05;5.10;;;;;;;3.40;61.32;98727.81;5106967;28;20044;-66
2021/12/03 08:17:48;;;;;;;7.35;5.13;;;;;;;2.45;61.22;98559.38;5106690;28;20044;-65
2021/12/03 08:20:21;;;;;;;10.35;6.65;;;;;;;3.17;61.66;98678.91;5106830;28;20288;-65
2021/12/03 08:22:53;;;;;;;8.48;5.82;;;;;;;3.45;61.74;98730.28;5106827;28;20051;-66
2021/12/03 08:25:26;;;;;;;6.85;5.05;;;;;;;3.42;61.60;98731.25;5106905;28;20043;-66
2021/12/03 08:28:00;;;;;;;7.05;6.28;;;;;;;1.76;61.59;98472.00;5106784;28;20047;-66
2021/12/03 08:30:32;;;;;;;6.70;5.38;;;;;;;3.48;61.70;98740.66;5106579;28;20063;-66
2021/12/03 08:33:05;;;;;;;6.38;5.03;;;;;;;3.51;61.86;98751.88;5106656;28;20040;-66
2021/12/03 08:35:37;;;;;;;6.72;5.70;;;;;;;3.52;61.96;98748.34;5106691;28;20047;-66
2021/12/03 08:38:09;;;;;;;8.52;5.50;;;;;;;3.58;61.54;98757.75;5106554;28;20054;-66
2021/12/03 08:40:42;;;;;;;6.47;5.32;;;;;;;3.52;61.70;98755.34;5106567;28;20051;-65
2021/12/03 08:43:15;;;;;;;5.63;4.25;;;;;;;3.50;61.81;98768.50;5106633;28;20040;-66
2021/12/03 08:45:53;;;;;;;6.85;5.75;;;;;;;3.50;61.79;98771.13;5106442;28;20047;-66
2021/12/03 08:48:34;;;;;;;8.95;5.60;;;;;;;3.52;61.69;98774.53;5088418;28;20055;-65
2021/12/03 08:51:21;;;;;;;6.28;4.82;;;;;;;3.52;62.13;98771.06;5106143;28;20040;-66
2021/12/03 08:56:43;;;;;;;5.50;4.45;;;;;;;3.52;62.04;98779.78;5106238;28;20044;-66
2021/12/03 08:59:17;;;;;;;5.97;4.60;;;;;;;3.56;62.12;98780.53;5105962;28;20036;-66
2021/12/03 09:01:49;;;;;;;8.83;6.23;;;;;;;3.54;62.31;98782.34;5106237;28;20043;-66
2021/12/03 09:04:23;;;;;;;6.22;5.07;;;;;;;3.58;62.38;98783.09;5105833;28;20059;-66
2021/12/03 09:06:56;;;;;;;9.05;5.75;;;;;;;3.29;62.57;98739.59;5105751;28;20044;-66
2021/12/03 09:09:29;;;;;;;5.97;4.60;;;;;;;3.67;62.42;98783.63;5106477;28;20040;-66
2021/12/03 09:12:01;;;;;;;5.53;4.18;;;;;;;3.84;61.77;98786.47;5105856;28;20040;-66
2021/12/03 09:14:38;;;;;;;6.40;5.18;;;;;;;3.96;60.66;98792.16;5105977;28;20040;-66
2021/12/03 09:20:06;;;;;;;5.72;4.35;;;;;;;2.02;60.17;98469.34;5088129;28;20063;-66
2021/12/03 09:22:41;;;;;;;5.60;4.00;;;;;;;3.90;60.09;98798.50;5105974;28;20047;-66
2021/12/03 09:25:18;;;;;;;4.97;4.20;;;;;;;-0.74;59.87;98026.47;5105857;28;20047;-66
2021/12/03 09:27:48;;;;;;;4.78;3.88;;;;;;;3.83;60.09;98804.88;5105271;28;20090;-66
2021/12/03 09:30:20;;;;;;;5.97;4.22;;;;;;;3.81;59.77;98799.69;5087881;28;20047;-66
2021/12/03 09:32:53;;;;;;;5.38;3.97;;;;;;;3.72;59.77;98805.25;5105476;28;20239;-66
2021/12/03 09:35:26;;;;;;;6.30;4.18;;;;;;;3.67;60.13;98807.19;5105320;28;20284;-66
2021/12/03 09:37:59;;;;;;;5.38;4.25;;;;;;;3.65;60.49;98805.53;5105688;28;20051;-66
2021/12/03 09:40:34;;;;;;;5.13;3.70;;;;;;;3.64;60.75;98799.44;5105473;28;20040;-65
2021/12/03 09:43:07;;;;;;;5.32;3.55;;;;;;;3.62;59.87;98792.56;5105605;28;20051;-66
2021/12/03 09:45:49;;;;;;;4.60;3.22;;;;;;;3.65;59.80;98806.41;5105307;28;20062;-65
2021/12/03 09:48:31;;;;;;;4.13;2.88;;;;;;;3.40;60.26;98759.25;5104920;28;20052;-65
2021/12/03 09:51:04;;;;;;;4.40;3.10;;;;;;;3.72;59.94;98810.50;5087691;28;20208;-66
2021/12/03 09:54:10;;;;;;;4.47;3.47;;;;;;;3.77;59.81;98811.19;5105532;28;20048;-65
2021/12/03 09:56:36;;;;;;;5.50;3.72;;;;;;;3.74;60.10;98815.69;5105049;28;20204;-65
2021/12/03 10:02:17;;;;;;;4.85;3.85;;;;;;;3.76;60.35;98811.25;5071848;28;20055;-66
2021/12/03 10:13:39;;;;;;;7.25;5.82;;;;;;;4.48;58.89;98793.69;5105017;28;20138;-65
2021/12/03 10:16:27;;;;;;;7.00;4.43;;;;;;;4.68;58.30;98791.13;5104913;28;20047;-66
2021/12/03 10:19:18;;;;;;;6.88;5.18;;;;;;;4.68;57.24;98792.88;5105135;28;20059;-65
2021/12/03 10:22:12;;;;;;;9.75;6.65;;;;;;;4.91;57.43;98792.00;5105128;28;20047;-65
2021/12/03 10:25:13;;;;;;;10.20;5.60;;;;;;;5.26;55.78;98793.13;5105263;28;20051;-66
2021/12/03 10:31:24;;;;;;;6.82;5.07;;;;;;;5.58;55.21;98789.97;5070897;28;20052;-66
2021/12/03 10:45:31;;;;;;;8.63;5.30;;;;;;;5.05;55.95;98790.50;5090999;28;20044;-66
2021/12/03 10:48:19;;;;;;;7.47;5.72;;;;;;;5.03;55.53;98799.34;5108233;28;20055;-65
2021/12/03 10:51:06;;;;;;;8.07;5.70;;;;;;;5.15;55.82;98793.59;5108734;28;20047;-66
2021/12/03 10:53:53;;;;;;;7.38;5.70;;;;;;;5.16;54.39;98787.41;5090864;28;20082;-66
2021/12/03 10:56:46;;;;;;;6.88;4.45;;;;;;;5.17;54.34;98788.28;5108385;28;20066;-66
2021/12/03 11:26:23;;;;;;;6.50;4.40;;;;;;;5.42;53.47;98768.75;5090283;28;20142;-67
2021/12/03 11:29:04;;;;;;;6.43;5.20;;;;;;;5.34;53.26;98781.38;5107342;28;20292;-67
2021/12/03 11:35:21;;;;;;;7.05;4.97;;;;;;;5.32;54.03;98777.13;5094081;28;20063;-68
2021/12/03 14:20:08;;;;;;;4.93;4.07;;;;;;;4.30;53.96;98873.94;5122078;27;20063;-65
2021/12/03 14:46:04;;;;;;;8.10;4.60;;;;;;;3.90;54.38;98908.59;5128469;28;20322;-65
2021/12/03 14:48:49;;;;;;;5.93;4.57;;;;;;;3.90;55.06;98911.22;5142917;27;20035;-65
2021/12/03 14:54:33;;;;;;;5.57;4.03;;;;;;;3.89;54.87;98917.38;5119392;27;20055;-65
2021/12/03 14:57:11;;;;;;;5.55;4.53;;;;;;;3.87;54.71;98920.97;5142535;27;20035;-65
2021/12/03 14:59:52;;;;;;;5.00;3.63;;;;;;;3.83;54.10;98923.69;5142453;27;20039;-65
2021/12/03 15:02:40;;;;;;;5.40;3.67;;;;;;;3.78;55.00;98917.75;5142692;27;20095;-65
2021/12/03 15:08:12;;;;;;;5.40;4.25;;;;;;;2.70;54.64;98782.59;5059663;28;20049;-65
2021/12/03 15:11:04;;;;;;;5.07;3.38;;;;;;;3.68;55.31;98920.75;5127245;28;20055;-65
2021/12/03 15:19:30;;;;;;;4.80;4.05;;;;;;;3.60;54.82;98928.00;5142020;27;20040;-65
2021/12/03 15:25:06;;;;;;;4.75;3.30;;;;;;;3.44;55.59;98940.75;5128479;28;20055;-65
2021/12/03 15:33:23;;;;;;;5.78;3.40;;;;;;;3.26;55.99;98939.59;5097179;28;20047;-66
2021/12/03 15:35:59;;;;;;;5.53;3.50;;;;;;;3.18;56.22;98937.22;5127841;28;20040;-65
2021/12/03 15:38:41;;;;;;;6.10;4.55;;;;;;;2.80;56.38;98883.47;5127683;28;20043;-65
2021/12/03 16:04:18;;;;;;;6.32;4.57;;;;;;;2.91;57.44;98961.66;5125411;28;20315;-65
2021/12/03 16:07:02;;;;;;;5.40;3.80;;;;;;;2.80;57.67;98966.34;5127984;28;20039;-66
2021/12/03 16:12:35;;;;;;;5.68;4.57;;;;;;;2.39;57.84;98910.03;5121665;28;20043;-66
2021/12/03 16:20:57;;;;;;;;;;;;;;;2.62;58.50;98987.81;5086147;28;20055;-66
2021/12/03 16:23:46;;;;;;;5.97;3.97;;;;;;;2.61;58.48;98991.34;5126681;28;19922;-66
2021/12/03 16:26:34;;;;;;;5.55;4.60;;;;;;;2.55;58.49;98995.84;5127513;28;20204;-66
2021/12/03 16:43:56;;;;;;;6.40;4.95;;;;;;;2.41;58.81;99005.84;5064982;28;20044;-67
2021/12/03 16:46:39;;;;;;;6.18;4.72;;;;;;;2.40;58.83;99004.13;5064661;28;20281;-66
2021/12/03 16:51:57;;;;;;;8.35;6.18;;;;;;;2.47;58.67;99007.44;5127021;28;20074;-66
2021/12/03 16:54:34;;;;;;;8.02;5.95;;;;;;;2.38;59.07;99013.78;5126284;28;20047;-66
2021/12/03 16:57:08;;;;;;;7.65;4.80;;;;;;;2.38;58.88;99036.47;5126930;28;20046;-65
2021/12/03 16:59:44;;;;;;;8.18;5.07;;;;;;;2.07;59.05;98964.06;5126482;28;20043;-65
2021/12/03 17:02:20;;;;;;;6.95;5.60;;;;;;;2.27;59.15;99013.22;5126701;28;20109;-64
2021/12/03 17:05:05;;;;;;;6.50;5.55;;;;;;;2.27;59.06;99013.22;5126485;28;20039;-65
2021/12/03 17:16:23;;;;;;;10.82;5.38;;;;;;;2.19;59.19;99013.41;5097851;28;20063;-66
2021/12/03 17:25:22;;;;;;;7.78;5.80;;;;;;;2.09;59.43;99009.34;5122729;28;20056;-65
2021/12/03 17:45:13;;;;;;;7.78;6.40;;;;;;;2.06;59.31;99024.25;5097217;28;20060;-66
2021/12/03 17:47:54;;;;;;;6.57;5.50;;;;;;;2.05;59.13;99019.91;5125891;28;20043;-65
2021/12/03 17:50:43;;;;;;;7.38;5.88;;;;;;;2.02;59.01;99025.22;5125955;28;20040;-66
2021/12/03 17:56:10;;;;;;;7.65;5.10;;;;;;;2.04;59.14;99026.91;5126066;28;20039;-65
2021/12/03 17:58:44;;;;;;;8.80;5.95;;;;;;;2.04;58.98;99026.03;5126057;28;20058;-65
2021/12/03 18:01:20;;;;;;;7.73;5.73;;;;;;;1.98;59.08;99028.81;5125884;28;20035;-65
2021/12/03 18:04:04;;;;;;;7.55;5.00;;;;;;;1.95;59.03;99031.50;5125143;28;20040;-66
2021/12/03 18:06:55;;;;;;;6.50;5.03;;;;;;;1.95;59.23;99027.13;5126116;28;20078;-65